createdAt,value
2018-02-02T00:00:25.789Z,3.43
2018-02-02T00:02:54.082Z,2.90
2018-02-02T00:05:22.430Z,2.47
2018-02-02T00:07:50.894Z,4.00
2018-02-02T00:10:19.265Z,2.50
2018-02-02T00:12:47.577Z,2.87
2018-02-02T00:15:15.876Z,3.30
2018-02-02T00:17:44.182Z,3.63
2018-02-02T00:20:13.352Z,2.80
2018-02-02T00:22:41.623Z,2.90
2018-02-02T00:25:10.348Z,3.03
2018-02-02T00:27:38.622Z,2.53
2018-02-02T00:30:06.973Z,3.10
2018-02-02T00:32:35.245Z,3.07
2018-02-02T00:35:03.539Z,3.33
2018-02-02T00:37:31.855Z,2.73
2018-02-02T00:40:00.133Z,3.30
2018-02-02T00:42:31.589Z,2.63
2018-02-02T00:44:59.882Z,3.00
2018-02-02T00:47:28.571Z,3.50
2018-02-02T00:49:56.876Z,3.10
2018-02-02T00:52:25.175Z,2.90
2018-02-02T00:54:53.622Z,2.60
2018-02-02T00:57:21.997Z,3.27
2018-02-02T00:59:50.315Z,3.00
2018-02-02T01:02:18.654Z,3.30
2018-02-02T01:04:47.109Z,2.77
2018-02-02T01:07:15.387Z,3.27
2018-02-02T01:09:43.771Z,3.10
2018-02-02T01:12:12.179Z,3.03
2018-02-02T01:14:40.603Z,3.23
2018-02-02T01:17:08.914Z,3.13
2018-02-02T01:19:37.206Z,4.37
2018-02-02T01:22:05.511Z,3.40
2018-02-02T01:24:33.895Z,3.37
2018-02-02T01:27:02.207Z,3.40
2018-02-02T01:29:30.671Z,3.30
2018-02-02T01:31:58.970Z,3.43
2018-02-02T01:34:27.452Z,3.67
2018-02-02T01:36:55.919Z,3.73
2018-02-02T01:39:24.179Z,3.23
2018-02-02T01:41:59.379Z,4.17
2018-02-02T01:44:27.723Z,4.10
2018-02-02T01:46:56.043Z,3.63
2018-02-02T01:49:24.319Z,4.57
2018-02-02T01:51:52.838Z,3.40
2018-02-02T01:54:21.280Z,3.33
2018-02-02T01:56:49.605Z,4.40
2018-02-02T01:59:17.911Z,4.00
2018-02-02T02:01:46.206Z,3.53
2018-02-02T02:04:14.502Z,3.67
2018-02-02T02:06:42.793Z,3.57
2018-02-02T02:09:11.164Z,3.80
2018-02-02T02:11:39.467Z,3.90
2018-02-02T02:14:07.864Z,4.57
2018-02-02T02:16:36.182Z,4.00
2018-02-02T02:19:04.702Z,4.00
2018-02-02T02:21:33.187Z,3.77
2018-02-02T02:24:01.479Z,4.20
2018-02-02T02:26:29.812Z,4.50
2018-02-02T02:28:58.195Z,4.33
2018-02-02T02:31:26.486Z,4.20
2018-02-02T02:33:54.935Z,4.10
2018-02-02T02:36:23.364Z,4.50
2018-02-02T02:38:51.704Z,4.03
2018-02-02T02:41:20.023Z,4.60
2018-02-02T02:43:48.333Z,4.73
2018-02-02T02:46:16.652Z,4.20
2018-02-02T02:48:44.943Z,4.27
2018-02-02T02:51:13.262Z,4.83
2018-02-02T02:53:41.650Z,4.90
2018-02-02T02:56:10.115Z,5.00
2018-02-02T02:58:38.383Z,4.67
2018-02-02T03:01:06.700Z,5.60
2018-02-02T03:03:34.986Z,5.93
2018-02-02T03:06:03.384Z,5.00
2018-02-02T03:08:31.642Z,5.10
2018-02-02T03:11:00.049Z,4.97
2018-02-02T03:13:28.324Z,5.70
2018-02-02T03:15:56.693Z,5.90
2018-02-02T03:18:25.122Z,5.03
2018-02-02T03:20:53.440Z,5.87
2018-02-02T03:23:21.705Z,5.90
2018-02-02T03:25:49.998Z,5.87
2018-02-02T03:28:18.287Z,6.20
2018-02-02T03:30:46.572Z,5.90
2018-02-02T03:33:14.981Z,5.67
2018-02-02T03:35:43.280Z,6.03
2018-02-02T03:38:11.594Z,6.33
2018-02-02T03:40:40.076Z,6.10
2018-02-02T03:43:08.391Z,6.20
2018-02-02T03:45:36.821Z,6.30
2018-02-02T03:48:05.086Z,6.50
2018-02-02T03:50:33.391Z,5.90
2018-02-02T03:53:01.682Z,6.47
2018-02-02T03:55:30.039Z,6.57
2018-02-02T03:57:58.765Z,7.03
2018-02-02T04:00:27.249Z,6.60
2018-02-02T04:02:55.552Z,6.63
2018-02-02T04:05:24.060Z,6.80
2018-02-02T04:07:52.506Z,7.00
2018-02-02T04:10:20.843Z,7.10
2018-02-02T04:12:49.172Z,6.60
2018-02-02T04:15:17.826Z,6.60
2018-02-02T04:17:46.158Z,7.50
2018-02-02T04:20:14.459Z,6.83
2018-02-02T04:22:42.830Z,6.83
2018-02-02T04:25:11.096Z,8.00
2018-02-02T04:27:39.359Z,7.20
2018-02-02T04:30:07.702Z,7.17
2018-02-02T04:32:35.975Z,7.97
2018-02-02T04:35:04.690Z,7.73
2018-02-02T04:37:33.237Z,7.60
2018-02-02T04:40:01.483Z,8.07
2018-02-02T04:42:29.826Z,8.30
2018-02-02T04:44:58.071Z,7.77
2018-02-02T04:47:26.616Z,7.87
2018-02-02T04:49:54.881Z,8.50
2018-02-02T04:52:23.275Z,7.93
2018-02-02T04:54:51.771Z,8.63
2018-02-02T04:57:20.165Z,7.70
2018-02-02T04:59:48.435Z,8.47
2018-02-02T05:05:12.372Z,7.80
2018-02-02T05:07:40.720Z,9.10
2018-02-02T05:10:09.034Z,9.60
2018-02-02T05:12:37.303Z,9.03
2018-02-02T05:15:05.685Z,8.73
